createdAt,value
2017-10-10T00:00:06.351Z,12.59
2017-10-10T00:01:06.329Z,12.64
2017-10-10T00:02:06.650Z,12.64
2017-10-10T00:03:06.638Z,12.66
2017-10-10T00:04:06.283Z,12.64
2017-10-10T00:05:06.269Z,12.69
2017-10-10T00:06:06.250Z,12.6
2017-10-10T00:07:05.904Z,12.59
2017-10-10T00:08:06.220Z,12.66
2017-10-10T00:09:06.559Z,12.6
2017-10-10T00:10:06.201Z,12.67
2017-10-10T00:11:06.178Z,12.71
2017-10-10T00:12:06.167Z,12.69
2017-10-10T00:13:06.147Z,12.64
2017-10-10T00:14:05.800Z,12.67
2017-10-10T00:15:06.123Z,12.74
2017-10-10T00:16:06.437Z,12.66
2017-10-10T00:17:06.084Z,12.67
2017-10-10T00:18:06.411Z,12.69
2017-10-10T00:19:06.261Z,12.66
2017-10-10T00:20:06.044Z,12.69
2017-10-10T00:21:06.372Z,12.69
2017-10-10T00:22:06.013Z,12.7
2017-10-10T00:23:05.999Z,12.67
2017-10-10T00:24:05.980Z,12.66
2017-10-10T00:25:05.968Z,12.7
2017-10-10T00:26:05.955Z,12.69
2017-10-10T00:27:06.266Z,12.66
2017-10-10T00:28:06.255Z,12.7
2017-10-10T00:29:06.252Z,12.7
2017-10-10T00:30:05.890Z,12.64
2017-10-10T00:31:05.880Z,12.69
2017-10-10T00:32:05.528Z,12.66
2017-10-10T00:33:05.853Z,12.69
2017-10-10T00:34:05.500Z,12.74
2017-10-10T00:35:05.815Z,12.63
2017-10-10T00:36:06.136Z,12.67
2017-10-10T00:37:06.119Z,12.69
2017-10-10T00:38:05.432Z,12.64
2017-10-10T00:39:05.752Z,12.67
2017-10-10T00:40:06.073Z,12.66
2017-10-10T00:41:05.726Z,12.69
2017-10-10T00:42:05.710Z,12.74
2017-10-10T00:43:05.690Z,12.66
2017-10-10T00:44:05.342Z,12.69
2017-10-10T00:45:06.000Z,12.67
2017-10-10T00:46:05.656Z,12.67
2017-10-10T00:47:05.989Z,12.66
2017-10-10T00:48:05.618Z,12.66
2017-10-10T00:49:05.942Z,12.67
2017-10-10T00:50:05.592Z,12.66
2017-10-10T00:51:05.570Z,12.67
2017-10-10T00:52:05.890Z,12.67
2017-10-10T00:53:05.596Z,12.67
2017-10-10T00:54:05.533Z,12.64
2017-10-10T00:55:05.527Z,12.7
2017-10-10T00:56:05.506Z,12.66
2017-10-10T00:57:05.483Z,12.74
2017-10-10T00:58:05.800Z,12.69
2017-10-10T00:59:05.459Z,12.69
2017-10-10T01:00:05.773Z,12.66
2017-10-10T01:01:05.419Z,12.71
2017-10-10T01:02:05.778Z,12.67
2017-10-10T01:03:05.732Z,12.69
2017-10-10T01:04:05.384Z,12.71
2017-10-10T01:05:05.712Z,12.74
2017-10-10T01:06:05.359Z,12.7
2017-10-10T01:07:05.334Z,12.7
2017-10-10T01:08:05.648Z,12.71
2017-10-10T01:09:05.302Z,12.74
2017-10-10T01:10:05.624Z,12.7
2017-10-10T01:11:04.939Z,12.7
2017-10-10T01:12:05.261Z,12.7
2017-10-10T01:13:04.910Z,12.69
2017-10-10T01:14:05.233Z,12.67
2017-10-10T01:15:05.219Z,12.71
2017-10-10T01:16:05.200Z,12.69
2017-10-10T01:17:05.181Z,12.71
2017-10-10T01:18:04.833Z,12.7
2017-10-10T01:19:05.488Z,12.7
2017-10-10T01:20:05.138Z,12.67
2017-10-10T01:21:05.127Z,12.74
2017-10-10T01:22:05.458Z,12.74
2017-10-10T01:23:05.101Z,12.7
2017-10-10T01:24:05.080Z,12.79
2017-10-10T01:25:05.078Z,12.69
2017-10-10T01:26:05.051Z,12.67
2017-10-10T01:27:04.707Z,12.7
2017-10-10T01:28:05.355Z,12.7
2017-10-10T01:29:04.682Z,12.71
2017-10-10T01:30:05.329Z,12.71
2017-10-10T01:31:05.320Z,12.74
2017-10-10T01:32:05.298Z,12.77
2017-10-10T01:33:04.608Z,12.77
2017-10-10T01:34:04.592Z,12.7
2017-10-10T01:35:04.918Z,12.75
2017-10-10T01:36:04.897Z,12.74
2017-10-10T01:37:04.886Z,12.82
2017-10-10T01:38:05.209Z,12.78
2017-10-10T01:39:04.522Z,12.75
2017-10-10T01:40:04.837Z,12.79
2017-10-10T01:41:04.826Z,12.74
2017-10-10T01:42:05.143Z,12.7
2017-10-10T01:43:04.463Z,12.75
2017-10-10T01:44:04.791Z,12.79
2017-10-10T01:45:04.766Z,12.74
2017-10-10T01:46:04.415Z,12.77
2017-10-10T01:47:04.733Z,12.74
2017-10-10T01:48:05.067Z,12.78
2017-10-10T01:49:05.037Z,12.74
2017-10-10T01:50:04.355Z,12.69
2017-10-10T01:51:04.676Z,12.77
2017-10-10T01:52:04.992Z,12.77
2017-10-10T01:53:04.318Z,12.79
2017-10-10T01:54:04.963Z,12.69
2017-10-10T01:55:04.944Z,12.78
2017-10-10T01:56:04.267Z,12.79
2017-10-10T01:57:04.245Z,12.79
2017-10-10T01:58:04.569Z,12.78
2017-10-10T01:59:04.555Z,12.74
2017-10-10T02:00:04.539Z,12.85
2017-10-10T02:01:04.527Z,12.74
2017-10-10T02:02:04.509Z,12.81
2017-10-10T02:03:04.493Z,12.82
2017-10-10T02:04:04.481Z,12.75
2017-10-10T02:05:04.816Z,12.78
2017-10-10T02:06:04.785Z,12.78
2017-10-10T02:07:04.774Z,12.78
2017-10-10T02:08:04.420Z,12.84
2017-10-10T02:09:04.790Z,12.82
2017-10-10T02:10:04.401Z,12.78
2017-10-10T02:11:04.712Z,12.74
2017-10-10T02:12:04.362Z,12.81
2017-10-10T02:13:04.340Z,12.77
2017-10-10T02:14:03.992Z,12.81
2017-10-10T02:15:04.314Z,12.7
2017-10-10T02:16:04.629Z,12.74
2017-10-10T02:17:03.951Z,12.71
2017-10-10T02:18:03.934Z,12.74
2017-10-10T02:19:04.459Z,12.66
2017-10-10T02:20:04.240Z,12.7
2017-10-10T02:21:04.224Z,12.66
2017-10-10T02:22:03.873Z,12.74
2017-10-10T02:23:03.861Z,12.7
2017-10-10T02:24:04.511Z,12.7
2017-10-10T02:25:04.165Z,12.67
2017-10-10T02:26:03.815Z,12.74
2017-10-10T02:27:04.468Z,12.66
2017-10-10T02:28:03.784Z,12.69
2017-10-10T02:29:04.101Z,12.69
2017-10-10T02:30:04.426Z,12.71
2017-10-10T02:31:04.408Z,12.67
2017-10-10T02:32:03.724Z,12.67
2017-10-10T02:33:03.706Z,12.66
2017-10-10T02:34:04.043Z,12.71
2017-10-10T02:35:04.356Z,12.7
2017-10-10T02:36:03.678Z,12.63
2017-10-10T02:37:03.987Z,12.69
2017-10-10T02:38:03.963Z,12.67
2017-10-10T02:39:04.300Z,12.7
2017-10-10T02:40:03.618Z,12.71
2017-10-10T02:41:03.588Z,12.66
2017-10-10T02:42:04.249Z,12.69
2017-10-10T02:43:03.893Z,12.64
2017-10-10T02:44:03.875Z,12.67
2017-10-10T02:45:03.862Z,12.74
2017-10-10T02:46:04.187Z,12.64
2017-10-10T02:47:03.501Z,12.71
2017-10-10T02:48:03.829Z,12.67
2017-10-10T02:49:03.474Z,12.7
2017-10-10T02:50:03.792Z,12.69
2017-10-10T02:51:04.111Z,12.66
2017-10-10T02:52:03.426Z,12.67
2017-10-10T02:53:03.407Z,12.7
2017-10-10T02:54:03.393Z,12.71
2017-10-10T02:55:03.717Z,12.69
2017-10-10T02:56:03.707Z,12.71
2017-10-10T02:57:03.686Z,12.71
2017-10-10T02:58:03.668Z,12.75
2017-10-10T02:59:04.030Z,12.71
2017-10-10T03:00:03.640Z,12.69
2017-10-10T03:01:03.956Z,12.81
2017-10-10T03:02:03.608Z,12.69
2017-10-10T03:03:03.599Z,12.71
2017-10-10T03:04:03.251Z,12.81
2017-10-10T03:05:03.567Z,12.71
2017-10-10T03:06:03.547Z,12.81
2017-10-10T03:07:03.868Z,12.75
2017-10-10T03:08:03.867Z,12.77
2017-10-10T03:09:03.518Z,12.74
2017-10-10T03:10:03.159Z,12.74
2017-10-10T03:11:03.480Z,12.81
2017-10-10T03:12:03.801Z,12.74
2017-10-10T03:13:03.108Z,12.82
2017-10-10T03:14:03.433Z,12.75
2017-10-10T03:15:03.754Z,12.75
2017-10-10T03:16:03.070Z,12.78
2017-10-10T03:17:03.728Z,12.79
2017-10-10T03:18:03.369Z,12.71
2017-10-10T03:19:03.356Z,12.77
2017-10-10T03:20:03.679Z,12.77
2017-10-10T03:21:03.328Z,12.77
2017-10-10T03:22:03.645Z,12.78
2017-10-10T03:23:03.635Z,12.75
2017-10-10T03:24:03.283Z,12.79
2017-10-10T03:25:03.272Z,12.77
2017-10-10T03:26:03.583Z,12.79
2017-10-10T03:27:03.240Z,12.79
2017-10-10T03:28:03.226Z,12.78
2017-10-10T03:29:03.214Z,12.78
2017-10-10T03:30:03.214Z,12.75
2017-10-10T03:31:03.189Z,12.81
2017-10-10T03:32:03.157Z,12.82
2017-10-10T03:33:03.480Z,12.81
2017-10-10T03:34:02.794Z,12.82
2017-10-10T03:35:03.114Z,12.84
2017-10-10T03:36:03.095Z,12.84
2017-10-10T03:37:03.086Z,12.79
2017-10-10T03:38:03.068Z,12.84
2017-10-10T03:39:03.057Z,12.79
2017-10-10T03:40:02.709Z,12.78
2017-10-10T03:41:03.026Z,12.81
2017-10-10T03:42:03.010Z,12.85
2017-10-10T03:43:03.332Z,12.87
2017-10-10T03:44:02.981Z,12.87
2017-10-10T03:45:02.963Z,12.89
2017-10-10T03:46:02.950Z,12.88
2017-10-10T03:47:03.277Z,12.92
2017-10-10T03:48:03.291Z,12.82
2017-10-10T03:49:03.240Z,12.89
2017-10-10T03:50:03.228Z,12.84
2017-10-10T03:51:02.879Z,12.95
2017-10-10T03:52:02.529Z,12.84
2017-10-10T03:53:02.509Z,12.92
2017-10-10T03:54:02.831Z,12.96
2017-10-10T03:55:03.145Z,12.93
2017-10-10T03:56:03.138Z,12.99
2017-10-10T03:57:03.117Z,12.93
2017-10-10T03:58:03.111Z,12.89
2017-10-10T03:59:03.097Z,12.88
2017-10-10T04:00:02.742Z,12.89
2017-10-10T04:01:02.799Z,12.95
2017-10-10T04:02:03.051Z,12.92
2017-10-10T04:03:02.693Z,12.92
2017-10-10T04:04:02.692Z,12.99
2017-10-10T04:05:03.014Z,12.97
2017-10-10T04:06:02.650Z,12.96
2017-10-10T04:07:02.647Z,12.99
2017-10-10T04:08:02.287Z,12.99
2017-10-10T04:09:02.941Z,12.97
2017-10-10T04:10:02.595Z,12.97
2017-10-10T04:11:02.632Z,12.97
2017-10-10T04:12:02.224Z,12.95
2017-10-10T04:13:02.210Z,12.96
2017-10-10T04:14:02.861Z,13.02
2017-10-10T04:15:02.860Z,13
2017-10-10T04:16:02.500Z,13.03
2017-10-10T04:17:02.151Z,13
2017-10-10T04:18:02.474Z,12.99
2017-10-10T04:19:02.996Z,12.99
2017-10-10T04:20:02.111Z,12.99
2017-10-10T04:21:02.433Z,12.99
2017-10-10T04:22:02.081Z,13
2017-10-10T04:23:02.402Z,13.02
2017-10-10T04:24:02.717Z,13
2017-10-10T04:25:02.361Z,13
2017-10-10T04:26:02.698Z,12.97
2017-10-10T04:27:02.685Z,13
2017-10-10T04:28:02.654Z,13
2017-10-10T04:29:01.976Z,12.96
2017-10-10T04:30:02.290Z,13.03
2017-10-10T04:31:02.609Z,13.11
2017-10-10T04:32:02.605Z,13.12
2017-10-10T04:33:02.246Z,13.11
2017-10-10T04:34:02.572Z,13.09
2017-10-10T04:35:02.221Z,13.15
2017-10-10T04:36:02.202Z,13.11
2017-10-10T04:37:01.863Z,13.06
2017-10-10T04:38:02.506Z,13.07
2017-10-10T04:39:02.519Z,13.09
2017-10-10T04:40:02.141Z,13.14
2017-10-10T04:41:01.793Z,13.06
2017-10-10T04:42:02.469Z,13.06
2017-10-10T04:43:02.099Z,13.09
2017-10-10T04:44:01.752Z,13.2
2017-10-10T04:45:02.400Z,13.09
2017-10-10T04:46:02.049Z,13.17
2017-10-10T04:47:02.035Z,13.21
2017-10-10T04:48:02.019Z,13.2
2017-10-10T04:49:02.339Z,13.12
2017-10-10T04:50:02.323Z,13.14
2017-10-10T04:51:02.317Z,13.09
2017-10-10T04:52:02.300Z,13.07
2017-10-10T04:53:02.287Z,13.18
2017-10-10T04:54:02.274Z,13.09
2017-10-10T04:55:01.916Z,13.11
2017-10-10T04:56:01.906Z,13.2
2017-10-10T04:57:02.222Z,13.11
2017-10-10T04:58:01.545Z,13.29
2017-10-10T04:59:01.868Z,13.09
2017-10-10T05:00:01.843Z,13.15
2017-10-10T05:01:01.495Z,13.24
2017-10-10T05:02:02.148Z,13.09
2017-10-10T05:03:01.801Z,13.15
2017-10-10T05:04:01.785Z,13.12
2017-10-10T05:05:02.100Z,13.09
2017-10-10T05:06:01.761Z,13.15
2017-10-10T05:07:02.077Z,13.09
2017-10-10T05:08:01.738Z,13.2
2017-10-10T05:09:01.709Z,13.14
2017-10-10T05:10:01.695Z,13.09
2017-10-10T05:11:01.679Z,13.12
2017-10-10T05:12:01.672Z,13.11
2017-10-10T05:13:01.656Z,13.18
2017-10-10T05:14:01.979Z,13.17
2017-10-10T05:15:01.966Z,13.25
2017-10-10T05:16:01.269Z,13.15
2017-10-10T05:17:01.259Z,13.11
2017-10-10T05:18:01.580Z,13.09
2017-10-10T05:19:01.563Z,13.12
2017-10-10T05:20:01.543Z,13.25
2017-10-10T05:21:01.198Z,13.18
2017-10-10T05:22:01.231Z,13.15
2017-10-10T05:23:01.501Z,13.17
2017-10-10T05:24:01.500Z,13.11
2017-10-10T05:25:01.486Z,13.11
2017-10-10T05:26:01.801Z,13.17
2017-10-10T05:27:01.108Z,13.14
2017-10-10T05:28:01.424Z,13.2
2017-10-10T05:29:01.434Z,13.25
2017-10-10T05:30:01.063Z,13.14
2017-10-10T05:31:01.730Z,13.14
2017-10-10T05:32:01.374Z,13.17
2017-10-10T05:33:01.685Z,13.17
2017-10-10T05:34:01.347Z,13.21
2017-10-10T05:35:01.662Z,13.2
2017-10-10T05:36:01.310Z,13.21
2017-10-10T05:37:01.342Z,13.21
2017-10-10T05:38:00.941Z,13.17
2017-10-10T05:39:01.601Z,13.12
2017-10-10T05:40:01.244Z,13.18
2017-10-10T05:41:01.239Z,13.24
2017-10-10T05:42:01.548Z,13.2
2017-10-10T05:43:01.200Z,13.24
2017-10-10T05:44:01.203Z,13.22
2017-10-10T05:45:01.183Z,13.22
2017-10-10T05:46:01.162Z,13.22
2017-10-10T05:47:01.149Z,13.21
2017-10-10T05:48:01.127Z,13.24
2017-10-10T05:49:01.446Z,13.22
2017-10-10T05:50:01.098Z,13.25
2017-10-10T05:51:01.098Z,13.24
2017-10-10T05:52:01.408Z,13.29
2017-10-10T05:53:01.053Z,13.22
2017-10-10T05:54:01.044Z,13.27
2017-10-10T05:55:01.039Z,13.29
2017-10-10T05:56:01.007Z,13.22
2017-10-10T05:57:00.995Z,13.32
2017-10-10T05:58:01.312Z,13.18
2017-10-10T05:59:01.295Z,13.3
2017-10-10T06:00:01.293Z,13.27
2017-10-10T06:01:01.265Z,13.25
2017-10-10T06:02:01.256Z,13.15
2017-10-10T06:03:00.574Z,13.33
2017-10-10T06:04:00.896Z,13.27
2017-10-10T06:05:01.212Z,13.25
2017-10-10T06:06:00.871Z,13.3
2017-10-10T06:07:00.514Z,13.32
2017-10-10T06:08:00.501Z,13.3
2017-10-10T06:09:00.841Z,13.29
2017-10-10T06:10:01.148Z,13.29
2017-10-10T06:11:00.787Z,13.32
2017-10-10T06:12:00.444Z,13.32
2017-10-10T06:13:00.761Z,13.25
2017-10-10T06:14:01.078Z,13.32
2017-10-10T06:15:01.058Z,13.4
2017-10-10T06:16:00.719Z,13.3
2017-10-10T06:17:01.038Z,13.36
2017-10-10T06:18:00.688Z,13.38
2017-10-10T06:19:01.213Z,13.32
2017-10-10T06:20:01.003Z,13.3
2017-10-10T06:21:00.666Z,13.25
2017-10-10T06:22:00.291Z,13.36
2017-10-10T06:23:00.609Z,13.32
2017-10-10T06:24:00.595Z,13.41
2017-10-10T06:25:00.916Z,13.32
2017-10-10T06:26:00.564Z,13.43
2017-10-10T06:27:00.887Z,13.36
2017-10-10T06:28:00.543Z,13.47
2017-10-10T06:29:00.522Z,13.38
2017-10-10T06:30:00.842Z,13.43
2017-10-10T06:31:00.502Z,13.41
2017-10-10T06:32:00.473Z,13.46
2017-10-10T06:33:00.798Z,13.43
2017-10-10T06:34:00.454Z,13.47
2017-10-10T06:35:00.447Z,13.46
2017-10-10T06:36:00.429Z,13.4
2017-10-10T06:37:00.739Z,13.47
2017-10-10T06:38:00.058Z,13.54
2017-10-10T06:39:00.043Z,13.55
2017-10-10T06:40:00.361Z,13.55
2017-10-10T06:41:00.351Z,13.59
2017-10-10T06:42:00.333Z,13.52
2017-10-10T06:43:00.314Z,13.55
2017-10-10T06:44:00.311Z,13.55
2017-10-10T06:45:00.631Z,13.59
2017-10-10T06:46:00.287Z,13.58
2017-10-10T06:47:00.263Z,13.54
2017-10-10T06:48:00.237Z,13.58
2017-10-10T06:49:00.230Z,13.59
2017-10-10T06:50:00.218Z,13.61
2017-10-10T06:51:00.549Z,13.49
2017-10-10T06:52:00.187Z,13.46
2017-10-10T06:53:00.174Z,13.58
2017-10-10T06:54:00.487Z,13.56
2017-10-10T06:55:00.135Z,13.58
2017-10-10T06:56:00.127Z,13.55
2017-10-10T06:57:00.112Z,13.55
2017-10-10T06:58:00.428Z,13.61
2017-10-10T06:58:59.750Z,13.56
2017-10-10T07:00:00.072Z,13.61
2017-10-10T07:01:00.064Z,13.58
2017-10-10T07:01:59.717Z,13.61
2017-10-10T07:03:00.355Z,13.59
2017-10-10T07:04:00.014Z,13.61
2017-10-10T07:04:59.659Z,13.55
2017-10-10T07:05:59.988Z,13.62
2017-10-10T07:06:59.986Z,13.55
2017-10-10T07:07:59.631Z,13.54
2017-10-10T07:08:59.941Z,13.55
2017-10-10T07:09:59.919Z,13.67
2017-10-10T07:10:59.572Z,13.62
2017-10-10T07:11:59.891Z,13.69
2017-10-10T07:13:00.211Z,13.61
2017-10-10T07:13:59.528Z,13.63
2017-10-10T07:15:00.188Z,13.56
2017-10-10T07:15:59.829Z,13.49
2017-10-10T07:17:00.153Z,13.63
2017-10-10T07:17:59.811Z,13.7
2017-10-10T07:18:59.457Z,13.58
2017-10-10T07:19:59.770Z,13.58
2017-10-10T07:20:59.769Z,13.61
2017-10-10T07:21:59.740Z,13.63
2017-10-10T07:22:59.728Z,13.63
2017-10-10T07:23:59.710Z,13.59
2017-10-10T07:24:59.698Z,13.62
2017-10-10T07:25:59.680Z,13.61
2017-10-10T07:26:59.670Z,13.67
2017-10-10T07:27:59.655Z,13.65
2017-10-10T07:28:59.642Z,13.67
2017-10-10T07:29:59.625Z,13.74
2017-10-10T07:30:59.610Z,13.65
2017-10-10T07:31:59.604Z,13.73
2017-10-10T07:32:59.247Z,13.8
2017-10-10T07:33:59.565Z,13.71
2017-10-10T07:34:59.556Z,13.76
2017-10-10T07:35:59.539Z,13.69
2017-10-10T07:36:59.524Z,13.71
2017-10-10T07:37:59.509Z,13.84
2017-10-10T07:38:59.823Z,13.8
2017-10-10T07:39:59.490Z,13.84
2017-10-10T07:40:59.472Z,13.8
2017-10-10T07:41:59.447Z,13.79
2017-10-10T07:42:59.431Z,13.81
2017-10-10T07:43:59.416Z,13.8
2017-10-10T07:44:59.420Z,13.8
2017-10-10T07:45:59.062Z,13.81
2017-10-10T07:46:59.372Z,13.8
2017-10-10T07:47:59.707Z,13.81
2017-10-10T07:48:59.681Z,13.8
2017-10-10T07:49:58.999Z,13.92
2017-10-10T07:50:59.667Z,13.91
2017-10-10T07:51:59.641Z,13.79
2017-10-10T07:52:59.289Z,13.88
2017-10-10T07:53:59.282Z,13.81
2017-10-10T07:54:59.613Z,13.98
2017-10-10T07:55:59.593Z,13.83
2017-10-10T07:56:59.234Z,13.79
2017-10-10T07:57:59.217Z,13.81
2017-10-10T07:58:59.203Z,13.8
2017-10-10T07:59:59.189Z,13.8
2017-10-10T08:00:59.512Z,13.83
2017-10-10T08:01:59.494Z,13.89
2017-10-10T08:02:59.150Z,13.92
2017-10-10T08:03:59.485Z,13.88
2017-10-10T08:04:59.119Z,13.94
2017-10-10T08:05:59.438Z,13.94
2017-10-10T08:06:59.435Z,13.91
2017-10-10T08:07:59.071Z,13.94
2017-10-10T08:08:59.056Z,13.98
2017-10-10T08:09:59.061Z,13.92
2017-10-10T08:10:59.369Z,14.04
2017-10-10T08:11:58.682Z,14.02
2017-10-10T08:12:59.000Z,14.06
2017-10-10T08:13:58.655Z,14.04
2017-10-10T08:14:58.972Z,14.09
2017-10-10T08:15:58.957Z,14.19
2017-10-10T08:16:59.272Z,14.1
2017-10-10T08:17:58.925Z,14.13
2017-10-10T08:18:59.125Z,14.21
2017-10-10T08:19:58.907Z,14.21
2017-10-10T08:20:58.891Z,14.32
2017-10-10T08:21:58.874Z,14.25
2017-10-10T08:22:58.861Z,14.2
2017-10-10T08:23:58.859Z,14.29
2017-10-10T08:24:58.832Z,14.38
2017-10-10T08:25:58.817Z,14.32
2017-10-10T08:26:59.137Z,14.35
2017-10-10T08:27:58.795Z,14.35
2017-10-10T08:28:58.782Z,14.37
2017-10-10T08:29:58.427Z,14.39
2017-10-10T08:30:58.748Z,14.35
2017-10-10T08:31:59.072Z,14.38
2017-10-10T08:32:59.058Z,14.35
2017-10-10T08:33:59.047Z,14.5
2017-10-10T08:34:58.702Z,14.49
2017-10-10T08:35:58.369Z,14.54
2017-10-10T08:36:59.003Z,14.44
2017-10-10T08:37:58.325Z,14.62
2017-10-10T08:38:58.636Z,14.5
2017-10-10T08:39:58.638Z,14.54
2017-10-10T08:40:58.616Z,14.56
2017-10-10T08:41:58.267Z,14.64
2017-10-10T08:42:58.585Z,14.68
2017-10-10T08:43:58.573Z,14.71
2017-10-10T08:44:58.559Z,14.78
2017-10-10T08:45:58.893Z,14.71
2017-10-10T08:46:58.554Z,14.83
2017-10-10T08:47:58.527Z,14.67
2017-10-10T08:48:58.858Z,14.78
2017-10-10T08:49:58.500Z,14.74
2017-10-10T08:50:58.482Z,14.8
2017-10-10T08:51:58.819Z,14.8
2017-10-10T08:52:58.785Z,14.8
2017-10-10T08:53:58.444Z,14.86
2017-10-10T08:54:58.426Z,14.84
2017-10-10T08:55:58.083Z,14.99
2017-10-10T08:56:58.066Z,14.94
2017-10-10T08:57:58.389Z,15.02
2017-10-10T08:58:58.037Z,15.02
2017-10-10T08:59:58.363Z,15.15
2017-10-10T09:00:58.345Z,15.13
2017-10-10T09:01:58.667Z,15.19
2017-10-10T09:02:58.658Z,15.13
2017-10-10T09:03:57.973Z,15.12
2017-10-10T09:04:58.298Z,15.01
2017-10-10T09:05:58.612Z,14.99
2017-10-10T09:06:57.935Z,14.98
2017-10-10T09:07:58.589Z,14.99
2017-10-10T09:08:58.246Z,14.98
2017-10-10T09:09:58.566Z,14.99
2017-10-10T09:10:58.221Z,14.99
2017-10-10T09:11:58.538Z,14.99
2017-10-10T09:12:58.192Z,15.08
2017-10-10T09:13:58.179Z,15.06
2017-10-10T09:14:58.165Z,15.15
2017-10-10T09:15:58.489Z,15.06
2017-10-10T09:16:58.137Z,15.17
2017-10-10T09:17:58.498Z,15.09
2017-10-10T09:18:57.782Z,15.12
2017-10-10T09:19:58.438Z,15.15
2017-10-10T09:20:58.094Z,15.26
2017-10-10T09:21:58.425Z,15.31
2017-10-10T09:22:58.069Z,15.36
2017-10-10T09:23:58.375Z,15.36
2017-10-10T09:24:58.042Z,15.39
2017-10-10T09:25:57.692Z,15.48
2017-10-10T09:26:58.349Z,15.48
2017-10-10T09:27:58.331Z,15.59
2017-10-10T09:28:57.983Z,15.63
2017-10-10T09:29:57.645Z,15.67
2017-10-10T09:30:58.297Z,15.61
2017-10-10T09:31:58.286Z,15.74
2017-10-10T09:32:57.946Z,15.68
2017-10-10T09:33:58.259Z,15.67
2017-10-10T09:34:57.583Z,15.52
2017-10-10T09:35:57.896Z,15.54
2017-10-10T09:36:57.572Z,15.57
2017-10-10T09:37:58.219Z,15.48
2017-10-10T09:38:57.876Z,15.43
2017-10-10T09:39:58.196Z,15.33
2017-10-10T09:40:57.847Z,15.36
2017-10-10T09:41:58.170Z,15.23
2017-10-10T09:42:57.495Z,15.28
2017-10-10T09:43:57.805Z,15.24
2017-10-10T09:44:57.806Z,15.2
2017-10-10T09:45:57.777Z,15.21
2017-10-10T09:46:57.768Z,15.13
2017-10-10T09:47:58.095Z,15.09
2017-10-10T09:48:57.741Z,15.12
2017-10-10T09:49:58.068Z,15.06
2017-10-10T09:50:57.719Z,15.08
2017-10-10T09:51:58.036Z,15.06
2017-10-10T09:52:58.025Z,15.05
2017-10-10T09:53:57.676Z,15.05
2017-10-10T09:54:57.327Z,14.99
2017-10-10T09:55:57.990Z,15.02
2017-10-10T09:56:57.641Z,14.99
2017-10-10T09:57:57.631Z,15.06
2017-10-10T09:58:57.612Z,15.08
2017-10-10T09:59:57.931Z,15.09
2017-10-10T10:00:57.583Z,15.23
2017-10-10T10:01:57.576Z,15.13
2017-10-10T10:02:57.892Z,15.15
2017-10-10T10:03:57.882Z,15.15
2017-10-10T10:04:57.534Z,15.23
2017-10-10T10:05:57.853Z,15.26
2017-10-10T10:06:57.504Z,15.3
2017-10-10T10:07:57.511Z,15.3
2017-10-10T10:08:57.823Z,15.33
2017-10-10T10:09:57.488Z,15.39
2017-10-10T10:10:57.456Z,15.48
2017-10-10T10:11:57.445Z,15.64
2017-10-10T10:12:57.434Z,15.7
2017-10-10T10:13:57.746Z,15.79
2017-10-10T10:14:57.412Z,15.81
2017-10-10T10:15:57.388Z,15.92
2017-10-10T10:16:57.046Z,15.94
2017-10-10T10:17:57.705Z,16.01
2017-10-10T10:18:57.556Z,16.07
2017-10-10T10:19:57.009Z,16.26
2017-10-10T10:20:57.341Z,16.3
2017-10-10T10:21:57.327Z,16.44
2017-10-10T10:22:57.641Z,16.49
2017-10-10T10:23:57.290Z,16.58
2017-10-10T10:24:57.281Z,16.55
2017-10-10T10:25:57.273Z,16.52
2017-10-10T10:26:57.257Z,16.42
2017-10-10T10:27:56.934Z,16.48
2017-10-10T10:28:56.932Z,16.52
2017-10-10T10:29:57.243Z,16.53
2017-10-10T10:30:56.885Z,16.62
2017-10-10T10:31:57.203Z,16.62
2017-10-10T10:32:57.530Z,16.6
2017-10-10T10:33:56.852Z,16.58
2017-10-10T10:34:56.841Z,16.63
2017-10-10T10:35:57.497Z,16.6
2017-10-10T10:36:57.479Z,16.5
2017-10-10T10:37:57.474Z,16.48
2017-10-10T10:38:57.129Z,16.49
2017-10-10T10:39:57.457Z,16.42
2017-10-10T10:40:57.438Z,16.44
2017-10-10T10:41:57.428Z,16.49
2017-10-10T10:42:57.417Z,16.58
2017-10-10T10:43:56.741Z,16.52
2017-10-10T10:44:57.063Z,16.53
2017-10-10T10:45:57.056Z,16.62
2017-10-10T10:46:57.039Z,16.59
2017-10-10T10:47:56.696Z,16.6
2017-10-10T10:48:56.685Z,16.62
2017-10-10T10:49:56.675Z,16.6
2017-10-10T10:50:56.994Z,16.5
2017-10-10T10:51:56.655Z,16.55
2017-10-10T10:52:57.305Z,16.49
2017-10-10T10:53:56.968Z,16.45
2017-10-10T10:54:56.948Z,16.5
2017-10-10T10:55:56.613Z,16.5
2017-10-10T10:56:56.934Z,16.48
2017-10-10T10:57:57.254Z,16.45
2017-10-10T10:58:57.245Z,16.49
2017-10-10T10:59:56.893Z,16.55
2017-10-10T11:00:56.884Z,16.59
2017-10-10T11:01:57.208Z,16.58
2017-10-10T11:02:57.202Z,16.59
2017-10-10T11:03:57.185Z,16.67
2017-10-10T11:04:56.848Z,16.62
2017-10-10T11:05:56.825Z,16.73
2017-10-10T11:06:56.822Z,16.7
2017-10-10T11:07:56.474Z,16.71
2017-10-10T11:08:57.126Z,16.83
2017-10-10T11:09:56.791Z,16.83
2017-10-10T11:10:56.781Z,16.73
2017-10-10T11:11:56.762Z,16.81
2017-10-10T11:12:56.754Z,16.7
2017-10-10T11:13:56.776Z,16.8
2017-10-10T11:14:57.069Z,16.85
2017-10-10T11:15:56.384Z,16.75
2017-10-10T11:16:56.717Z,16.85
2017-10-10T11:17:56.705Z,16.85
2017-10-10T11:18:56.701Z,16.86
2017-10-10T11:19:56.688Z,16.83
2017-10-10T11:20:56.331Z,16.9
2017-10-10T11:21:56.655Z,17.06
2017-10-10T11:22:56.978Z,17.06
2017-10-10T11:23:56.292Z,16.98
2017-10-10T11:24:56.618Z,16.93
2017-10-10T11:25:56.607Z,16.83
2017-10-10T11:26:56.937Z,16.8
2017-10-10T11:27:56.922Z,16.83
2017-10-10T11:28:56.922Z,16.83
2017-10-10T11:29:56.233Z,16.86
2017-10-10T11:30:56.560Z,16.77
2017-10-10T11:31:56.878Z,16.86
2017-10-10T11:32:56.858Z,16.86
2017-10-10T11:33:56.854Z,16.95
2017-10-10T11:34:56.178Z,17.04
2017-10-10T11:35:56.833Z,17.13
2017-10-10T11:36:56.492Z,17.33
2017-10-10T11:37:56.478Z,17.28
2017-10-10T11:38:56.129Z,17.38
2017-10-10T11:39:56.801Z,17.3
2017-10-10T11:40:56.452Z,17.35
2017-10-10T11:41:56.444Z,17.33
2017-10-10T11:42:56.775Z,17.43
2017-10-10T11:43:56.422Z,17.38
2017-10-10T11:44:56.404Z,17.5
2017-10-10T11:45:56.397Z,17.47
2017-10-10T11:46:56.392Z,17.51
2017-10-10T11:47:56.714Z,17.5
2017-10-10T11:48:56.368Z,17.46
2017-10-10T11:49:56.359Z,17.53
2017-10-10T11:50:56.681Z,17.55
2017-10-10T11:51:56.003Z,17.64
2017-10-10T11:52:56.685Z,17.53
2017-10-10T11:53:56.651Z,17.41
2017-10-10T11:54:55.970Z,17.51
2017-10-10T11:55:56.637Z,17.47
2017-10-10T11:56:56.294Z,17.5
2017-10-10T11:57:56.612Z,17.5
2017-10-10T11:58:56.604Z,17.43
2017-10-10T11:59:56.589Z,17.4
2017-10-10T12:00:55.912Z,17.4
2017-10-10T12:01:55.902Z,17.38
2017-10-10T12:02:56.566Z,17.33
2017-10-10T12:03:56.219Z,17.35
2017-10-10T12:04:56.212Z,17.28
2017-10-10T12:05:55.863Z,17.28
2017-10-10T12:06:56.518Z,17.33
2017-10-10T12:07:56.198Z,17.28
2017-10-10T12:08:56.557Z,17.13
2017-10-10T12:09:55.834Z,17.13
2017-10-10T12:10:55.820Z,17.03
2017-10-10T12:11:56.137Z,17
2017-10-10T12:12:56.462Z,17.06
2017-10-10T12:13:56.119Z,16.96
2017-10-10T12:14:56.115Z,17.13
2017-10-10T12:15:56.431Z,16.99
2017-10-10T12:16:56.091Z,17.07
2017-10-10T12:17:56.409Z,17.04
2017-10-10T12:18:56.612Z,16.96
2017-10-10T12:19:55.725Z,17.06
2017-10-10T12:20:56.044Z,17.06
2017-10-10T12:21:56.036Z,16.98
2017-10-10T12:22:55.692Z,17.1
2017-10-10T12:23:56.019Z,17
2017-10-10T12:24:55.994Z,16.96
2017-10-10T12:25:55.659Z,16.93
2017-10-10T12:26:55.974Z,16.93
2017-10-10T12:27:56.348Z,16.77
2017-10-10T12:28:55.953Z,16.88
2017-10-10T12:29:55.610Z,16.67
2017-10-10T12:30:55.951Z,16.71
2017-10-10T12:31:56.255Z,16.7
2017-10-10T12:32:56.012Z,16.6
2017-10-10T12:33:55.573Z,16.59
2017-10-10T12:34:56.265Z,16.56
2017-10-10T12:35:55.891Z,16.53
2017-10-10T12:36:55.866Z,16.52
2017-10-10T12:37:56.186Z,16.56
2017-10-10T12:38:55.507Z,16.49
2017-10-10T12:39:56.168Z,16.5
2017-10-10T12:40:55.487Z,16.55
2017-10-10T12:41:55.807Z,16.52
2017-10-10T12:42:55.460Z,16.49
2017-10-10T12:43:55.448Z,16.49
2017-10-10T12:44:55.769Z,16.55
2017-10-10T12:45:56.094Z,16.56
2017-10-10T12:46:55.746Z,16.52
2017-10-10T12:47:55.737Z,16.58
2017-10-10T12:48:56.057Z,16.55
2017-10-10T12:49:55.710Z,16.53
2017-10-10T12:50:55.726Z,16.55
2017-10-10T12:51:55.696Z,16.52
2017-10-10T12:52:56.019Z,16.52
2017-10-10T12:53:55.335Z,16.45
2017-10-10T12:54:55.990Z,16.44
2017-10-10T12:55:55.983Z,16.48